sensor_id;sensor_type;location;lat;lon;timestamp;pressure;altitude;pressure_sealevel;temperature;humidity
44140;BME280;29803;51.048;4.686;2023-06-05T00:02:04;102128.75;;;14.60;100.00
44140;BME280;29803;51.048;4.686;2023-06-05T00:04:35;102120.16;;;14.56;100.00
44140;BME280;29803;51.048;4.686;2023-06-05T00:07:06;102125.34;;;14.49;100.00
44140;BME280;29803;51.048;4.686;2023-06-05T00:09:37;102122.22;;;14.44;100.00
44140;BME280;29803;51.048;4.686;2023-06-05T00:12:08;102117.31;;;14.40;100.00
44140;BME280;29803;51.048;4.686;2023-06-05T00:14:38;102125.88;;;14.35;100.00
44140;BME280;29803;51.048;4.686;2023-06-05T00:17:09;102118.28;;;14.31;100.00
44140;BME280;29803;51.048;4.686;2023-06-05T00:19:39;102118.59;;;14.28;100.00
44140;BME280;29803;51.048;4.686;2023-06-05T00:22:10;102121.47;;;14.26;100.00
44140;BME280;29803;51.048;4.686;2023-06-05T00:24:40;102127.00;;;14.24;100.00
44140;BME280;29803;51.048;4.686;2023-06-05T00:27:10;102124.78;;;14.20;100.00
44140;BME280;29803;51.048;4.686;2023-06-05T00:29:41;102117.03;;;14.17;100.00
44140;BME280;29803;51.048;4.686;2023-06-05T00:32:11;102120.88;;;14.14;100.00
44140;BME280;29803;51.048;4.686;2023-06-05T00:34:42;102120.50;;;14.09;100.00
44140;BME280;29803;51.048;4.686;2023-06-05T00:37:12;102120.31;;;14.03;100.00
44140;BME280;29803;51.048;4.686;2023-06-05T00:39:44;102119.75;;;13.99;100.00
44140;BME280;29803;51.048;4.686;2023-06-05T00:42:14;102115.84;;;13.93;100.00
44140;BME280;29803;51.048;4.686;2023-06-05T00:44:45;102106.53;;;13.88;100.00
44140;BME280;29803;51.048;4.686;2023-06-05T00:47:16;102111.94;;;13.88;100.00
44140;BME280;29803;51.048;4.686;2023-06-05T00:49:47;102106.47;;;13.80;100.00
44140;BME280;29803;51.048;4.686;2023-06-05T00:52:18;102103.09;;;13.78;100.00
44140;BME280;29803;51.048;4.686;2023-06-05T00:54:48;102111.47;;;13.74;100.00
44140;BME280;29803;51.048;4.686;2023-06-05T00:57:20;102109.78;;;13.73;100.00
44140;BME280;29803;51.048;4.686;2023-06-05T00:59:50;102110.13;;;13.70;100.00
44140;BME280;29803;51.048;4.686;2023-06-05T01:02:21;102111.44;;;13.66;100.00
44140;BME280;29803;51.048;4.686;2023-06-05T01:04:51;102112.56;;;13.64;100.00
44140;BME280;29803;51.048;4.686;2023-06-05T01:07:22;102106.25;;;13.55;100.00
44140;BME280;29803;51.048;4.686;2023-06-05T01:09:54;102109.75;;;13.47;100.00
44140;BME280;29803;51.048;4.686;2023-06-05T01:15:11;102112.34;;;13.39;100.00
44140;BME280;29803;51.048;4.686;2023-06-05T01:17:42;102104.13;;;13.41;100.00
44140;BME280;29803;51.048;4.686;2023-06-05T01:20:39;102117.91;;;13.38;100.00
44140;BME280;29803;51.048;4.686;2023-06-05T01:23:23;102106.13;;;13.39;100.00
44140;BME280;29803;51.048;4.686;2023-06-05T01:26:30;102107.41;;;13.35;100.00
44140;BME280;29803;51.048;4.686;2023-06-05T01:29:11;102099.94;;;13.29;100.00
44140;BME280;29803;51.048;4.686;2023-06-05T01:31:44;102096.72;;;13.25;100.00
44140;BME280;29803;51.048;4.686;2023-06-05T01:34:17;102094.00;;;13.25;100.00
44140;BME280;29803;51.048;4.686;2023-06-05T01:36:50;102089.63;;;13.24;100.00
44140;BME280;29803;51.048;4.686;2023-06-05T01:39:21;102098.13;;;13.19;100.00
44140;BME280;29803;51.048;4.686;2023-06-05T01:41:57;102088.81;;;13.14;100.00
44140;BME280;29803;51.048;4.686;2023-06-05T01:44:28;102088.81;;;13.14;100.00
44140;BME280;29803;51.048;4.686;2023-06-05T01:47:00;102088.31;;;13.10;100.00
44140;BME280;29803;51.048;4.686;2023-06-05T01:49:31;102097.81;;;13.05;100.00
44140;BME280;29803;51.048;4.686;2023-06-05T01:52:02;102092.88;;;13.00;100.00
44140;BME280;29803;51.048;4.686;2023-06-05T01:54:32;102097.88;;;12.95;100.00
44140;BME280;29803;51.048;4.686;2023-06-05T01:57:04;102089.28;;;12.91;100.00
44140;BME280;29803;51.048;4.686;2023-06-05T01:59:35;102093.09;;;12.89;100.00
44140;BME280;29803;51.048;4.686;2023-06-05T02:02:06;102084.19;;;12.88;100.00
44140;BME280;29803;51.048;4.686;2023-06-05T02:04:40;102088.88;;;12.86;100.00
44140;BME280;29803;51.048;4.686;2023-06-05T02:07:10;102090.00;;;12.84;100.00
44140;BME280;29803;51.048;4.686;2023-06-05T02:09:41;102084.22;;;12.79;100.00
44140;BME280;29803;51.048;4.686;2023-06-05T02:12:13;102088.94;;;12.77;100.00
44140;BME280;29803;51.048;4.686;2023-06-05T02:14:44;102082.00;;;12.74;100.00
44140;BME280;29803;51.048;4.686;2023-06-05T02:17:15;102078.59;;;12.72;100.00
44140;BME280;29803;51.048;4.686;2023-06-05T02:19:46;102082.88;;;12.65;100.00
44140;BME280;29803;51.048;4.686;2023-06-05T02:22:17;102083.34;;;12.60;100.00
44140;BME280;29803;51.048;4.686;2023-06-05T02:24:47;102083.66;;;12.57;100.00
44140;BME280;29803;51.048;4.686;2023-06-05T02:27:18;102082.25;;;12.53;100.00
44140;BME280;29803;51.048;4.686;2023-06-05T02:29:49;102072.75;;;12.49;100.00
44140;BME280;29803;51.048;4.686;2023-06-05T02:32:20;102087.53;;;12.45;100.00
44140;BME280;29803;51.048;4.686;2023-06-05T02:34:51;102086.13;;;12.41;100.00
44140;BME280;29803;51.048;4.686;2023-06-05T02:37:23;102083.72;;;12.38;100.00
44140;BME280;29803;51.048;4.686;2023-06-05T02:39:54;102091.13;;;12.36;100.00
44140;BME280;29803;51.048;4.686;2023-06-05T02:42:24;102092.25;;;12.33;100.00
44140;BME280;29803;51.048;4.686;2023-06-05T02:44:55;102090.56;;;12.32;100.00
44140;BME280;29803;51.048;4.686;2023-06-05T02:47:25;102095.66;;;12.35;100.00
44140;BME280;29803;51.048;4.686;2023-06-05T02:49:57;102091.41;;;12.33;100.00
44140;BME280;29803;51.048;4.686;2023-06-05T02:52:28;102095.38;;;12.29;100.00
44140;BME280;29803;51.048;4.686;2023-06-05T02:55:00;102089.59;;;12.24;100.00
44140;BME280;29803;51.048;4.686;2023-06-05T02:57:31;102093.44;;;12.21;100.00
44140;BME280;29803;51.048;4.686;2023-06-05T03:00:04;102090.03;;;12.19;100.00
44140;BME280;29803;51.048;4.686;2023-06-05T03:02:38;102086.78;;;12.15;100.00
44140;BME280;29803;51.048;4.686;2023-06-05T03:05:09;102087.34;;;12.09;100.00
44140;BME280;29803;51.048;4.686;2023-06-05T03:07:40;102085.25;;;12.03;100.00
44140;BME280;29803;51.048;4.686;2023-06-05T03:10:10;102086.41;;;12.01;100.00
44140;BME280;29803;51.048;4.686;2023-06-05T03:12:41;102086.69;;;11.98;100.00
44140;BME280;29803;51.048;4.686;2023-06-05T03:15:12;102079.91;;;11.93;100.00
44140;BME280;29803;51.048;4.686;2023-06-05T03:17:42;102080.22;;;11.90;100.00
44140;BME280;29803;51.048;4.686;2023-06-05T03:20:13;102077.94;;;11.86;100.00
44140;BME280;29803;51.048;4.686;2023-06-05T03:22:43;102081.63;;;11.85;100.00
44140;BME280;29803;51.048;4.686;2023-06-05T03:25:14;102080.91;;;11.83;100.00
44140;BME280;29803;51.048;4.686;2023-06-05T03:27:44;102080.31;;;11.79;100.00
44140;BME280;29803;51.048;4.686;2023-06-05T03:30:16;102077.78;;;11.78;100.00
44140;BME280;29803;51.048;4.686;2023-06-05T03:32:49;102077.78;;;11.78;100.00
44140;BME280;29803;51.048;4.686;2023-06-05T03:35:19;102072.72;;;11.75;100.00
44140;BME280;29803;51.048;4.686;2023-06-05T03:37:50;102074.00;;;11.71;100.00
44140;BME280;29803;51.048;4.686;2023-06-05T03:40:20;102076.94;;;11.67;100.00
44140;BME280;29803;51.048;4.686;2023-06-05T03:42:51;102079.63;;;11.67;100.00
44140;BME280;29803;51.048;4.686;2023-06-05T03:45:21;102071.56;;;11.67;100.00
44140;BME280;29803;51.048;4.686;2023-06-05T03:47:53;102075.09;;;11.68;100.00
44140;BME280;29803;51.048;4.686;2023-06-05T03:50:24;102073.56;;;11.65;100.00
44140;BME280;29803;51.048;4.686;2023-06-05T03:52:55;102071.56;;;11.67;100.00
44140;BME280;29803;51.048;4.686;2023-06-05T03:55:33;102080.78;;;11.65;100.00
44140;BME280;29803;51.048;4.686;2023-06-05T03:58:22;102077.38;;;11.63;100.00
44140;BME280;29803;51.048;4.686;2023-06-05T04:00:53;102088.97;;;11.63;100.00
44140;BME280;29803;51.048;4.686;2023-06-05T04:03:24;102092.66;;;11.62;100.00
44140;BME280;29803;51.048;4.686;2023-06-05T04:05:55;102082.59;;;11.64;100.00
44140;BME280;29803;51.048;4.686;2023-06-05T04:08:25;102087.97;;;11.64;100.00
44140;BME280;29803;51.048;4.686;2023-06-05T04:10:56;102085.28;;;11.64;100.00
44140;BME280;29803;51.048;4.686;2023-06-05T04:13:26;102082.75;;;11.63;100.00
44140;BME280;29803;51.048;4.686;2023-06-05T04:15:57;102086.16;;;11.65;100.00
44140;BME280;29803;51.048;4.686;2023-06-05T04:18:27;102087.00;;;11.65;100.00
44140;BME280;29803;51.048;4.686;2023-06-05T04:20:58;102089.53;;;11.67;100.00
44140;BME280;29803;51.048;4.686;2023-06-05T04:23:29;102093.78;;;11.70;100.00
44140;BME280;29803;51.048;4.686;2023-06-05T04:25:59;102096.47;;;11.70;100.00
44140;BME280;29803;51.048;4.686;2023-06-05T04:28:30;102098.03;;;11.72;100.00
44140;BME280;29803;51.048;4.686;2023-06-05T04:31:01;102091.66;;;11.73;100.00
44140;BME280;29803;51.048;4.686;2023-06-05T04:33:32;102087.84;;;11.76;100.00
44140;BME280;29803;51.048;4.686;2023-06-05T04:36:02;102092.06;;;11.78;100.00
44140;BME280;29803;51.048;4.686;2023-06-05T04:38:34;102086.56;;;11.80;100.00
44140;BME280;29803;51.048;4.686;2023-06-05T04:41:07;102091.53;;;11.84;100.00
44140;BME280;29803;51.048;4.686;2023-06-05T04:43:37;102099.47;;;11.86;100.00
44140;BME280;29803;51.048;4.686;2023-06-05T04:46:08;102094.50;;;11.91;100.00
44140;BME280;29803;51.048;4.686;2023-06-05T04:48:38;102092.34;;;11.95;100.00
44140;BME280;29803;51.048;4.686;2023-06-05T04:51:09;102101.72;;;12.00;100.00
44140;BME280;29803;51.048;4.686;2023-06-05T04:53:39;102097.72;;;12.04;100.00
44140;BME280;29803;51.048;4.686;2023-06-05T04:56:12;102091.91;;;12.09;100.00
44140;BME280;29803;51.048;4.686;2023-06-05T04:58:42;102101.22;;;12.14;100.00
44140;BME280;29803;51.048;4.686;2023-06-05T05:01:13;102098.09;;;12.19;100.00
44140;BME280;29803;51.048;4.686;2023-06-05T05:03:44;102104.72;;;12.25;100.00
44140;BME280;29803;51.048;4.686;2023-06-05T05:06:16;102104.16;;;12.31;100.00
44140;BME280;29803;51.048;4.686;2023-06-05T05:08:47;102101.88;;;12.36;100.00
44140;BME280;29803;51.048;4.686;2023-06-05T05:11:19;102103.13;;;12.41;100.00
44140;BME280;29803;51.048;4.686;2023-06-05T05:13:50;102095.31;;;12.48;100.00
44140;BME280;29803;51.048;4.686;2023-06-05T05:16:21;102099.13;;;12.55;100.00
44140;BME280;29803;51.048;4.686;2023-06-05T05:18:52;102094.13;;;12.60;100.00
44140;BME280;29803;51.048;4.686;2023-06-05T05:21:23;102099.75;;;12.67;100.00
44140;BME280;29803;51.048;4.686;2023-06-05T05:23:53;102094.75;;;12.72;100.00
44140;BME280;29803;51.048;4.686;2023-06-05T05:26:24;102097.56;;;12.80;100.00
44140;BME280;29803;51.048;4.686;2023-06-05T05:28:54;102102.34;;;12.86;100.00
44140;BME280;29803;51.048;4.686;2023-06-05T05:31:25;102109.53;;;12.95;100.00
44140;BME280;29803;51.048;4.686;2023-06-05T05:33:55;102099.81;;;13.03;100.00
44140;BME280;29803;51.048;4.686;2023-06-05T05:36:27;102094.66;;;13.09;100.00
44140;BME280;29803;51.048;4.686;2023-06-05T05:38:57;102102.84;;;13.17;100.00
44140;BME280;29803;51.048;4.686;2023-06-05T05:41:28;102101.25;;;13.25;100.00
44140;BME280;29803;51.048;4.686;2023-06-05T05:43:58;102096.81;;;13.33;100.00
44140;BME280;29803;51.048;4.686;2023-06-05T05:46:29;102106.66;;;13.42;100.00
44140;BME280;29803;51.048;4.686;2023-06-05T05:48:59;102101.88;;;13.54;100.00
44140;BME280;29803;51.048;4.686;2023-06-05T05:51:30;102106.88;;;13.67;100.00
44140;BME280;29803;51.048;4.686;2023-06-05T05:54:01;102108.66;;;13.76;100.00
44140;BME280;29803;51.048;4.686;2023-06-05T05:56:31;102107.44;;;13.96;100.00
44140;BME280;29803;51.048;4.686;2023-06-05T05:59:04;102112.44;;;14.43;100.00
44140;BME280;29803;51.048;4.686;2023-06-05T06:01:34;102120.34;;;15.13;100.00
44140;BME280;29803;51.048;4.686;2023-06-05T06:04:05;102115.03;;;15.87;100.00
44140;BME280;29803;51.048;4.686;2023-06-05T06:06:35;102117.25;;;16.55;100.00
44140;BME280;29803;51.048;4.686;2023-06-05T06:09:08;102109.78;;;17.04;100.00
44140;BME280;29803;51.048;4.686;2023-06-05T06:11:39;102105.31;;;17.43;100.00
44140;BME280;29803;51.048;4.686;2023-06-05T06:14:10;102106.41;;;17.94;100.00
44140;BME280;29803;51.048;4.686;2023-06-05T06:16:40;102114.31;;;18.19;100.00
44140;BME280;29803;51.048;4.686;2023-06-05T06:19:12;102122.94;;;18.52;100.00
44140;BME280;29803;51.048;4.686;2023-06-05T06:21:44;102122.50;;;18.78;100.00
44140;BME280;29803;51.048;4.686;2023-06-05T06:24:14;102122.34;;;19.01;100.00
44140;BME280;29803;51.048;4.686;2023-06-05T06:26:46;102124.53;;;19.27;100.00
44140;BME280;29803;51.048;4.686;2023-06-05T06:29:19;102130.06;;;19.76;100.00
44140;BME280;29803;51.048;4.686;2023-06-05T06:31:50;102127.59;;;19.81;100.00
44140;BME280;29803;51.048;4.686;2023-06-05T06:34:21;102132.28;;;19.66;100.00
44140;BME280;29803;51.048;4.686;2023-06-05T06:36:52;102136.81;;;19.80;100.00
44140;BME280;29803;51.048;4.686;2023-06-05T06:39:22;102133.91;;;20.10;100.00
44140;BME280;29803;51.048;4.686;2023-06-05T06:41:56;102134.13;;;20.43;100.00
44140;BME280;29803;51.048;4.686;2023-06-05T06:44:27;102130.31;;;20.65;100.00
44140;BME280;29803;51.048;4.686;2023-06-05T06:46:58;102123.72;;;20.47;100.00
44140;BME280;29803;51.048;4.686;2023-06-05T06:49:29;102129.25;;;20.60;100.00
44140;BME280;29803;51.048;4.686;2023-06-05T06:51:59;102129.56;;;21.46;100.00
44140;BME280;29803;51.048;4.686;2023-06-05T06:54:30;102132.09;;;21.48;100.00
44140;BME280;29803;51.048;4.686;2023-06-05T06:57:01;102133.53;;;20.82;100.00
44140;BME280;29803;51.048;4.686;2023-06-05T06:59:33;102135.03;;;20.85;100.00
44140;BME280;29803;51.048;4.686;2023-06-05T07:02:09;102139.34;;;21.14;100.00
44140;BME280;29803;51.048;4.686;2023-06-05T07:04:42;102144.28;;;21.45;100.00
44140;BME280;29803;51.048;4.686;2023-06-05T07:07:15;102144.75;;;21.95;100.00
44140;BME280;29803;51.048;4.686;2023-06-05T07:09:48;102137.38;;;21.82;100.00
44140;BME280;29803;51.048;4.686;2023-06-05T07:12:19;102149.38;;;22.34;100.00
44140;BME280;29803;51.048;4.686;2023-06-05T07:14:51;102136.06;;;22.51;100.00
44140;BME280;29803;51.048;4.686;2023-06-05T07:17:22;102137.81;;;22.06;100.00
44140;BME280;29803;51.048;4.686;2023-06-05T07:19:52;102144.50;;;22.49;100.00
44140;BME280;29803;51.048;4.686;2023-06-05T07:22:23;102146.41;;;22.36;100.00
44140;BME280;29803;51.048;4.686;2023-06-05T07:24:55;102149.81;;;22.25;100.00
44140;BME280;29803;51.048;4.686;2023-06-05T07:27:25;102148.09;;;22.37;100.00
44140;BME280;29803;51.048;4.686;2023-06-05T07:29:56;102151.81;;;22.62;100.00
44140;BME280;29803;51.048;4.686;2023-06-05T07:32:26;102152.81;;;23.33;100.00
44140;BME280;29803;51.048;4.686;2023-06-05T07:34:57;102151.97;;;23.32;100.00
44140;BME280;29803;51.048;4.686;2023-06-05T07:37:27;102139.78;;;23.66;100.00
44140;BME280;29803;51.048;4.686;2023-06-05T07:39:58;102153.81;;;23.76;100.00
44140;BME280;29803;51.048;4.686;2023-06-05T07:42:28;102143.78;;;23.64;100.00
44140;BME280;29803;51.048;4.686;2023-06-05T07:44:59;102150.78;;;23.53;100.00
44140;BME280;29803;51.048;4.686;2023-06-05T07:47:29;102150.97;;;23.65;100.00
44140;BME280;29803;51.048;4.686;2023-06-05T07:50:01;102154.91;;;23.69;100.00
44140;BME280;29803;51.048;4.686;2023-06-05T07:52:35;102142.31;;;23.93;100.00
44140;BME280;29803;51.048;4.686;2023-06-05T07:55:06;102144.63;;;24.14;100.00
44140;BME280;29803;51.048;4.686;2023-06-05T07:57:37;102151.19;;;24.38;100.00
44140;BME280;29803;51.048;4.686;2023-06-05T08:00:09;102146.16;;;25.09;100.00
44140;BME280;29803;51.048;4.686;2023-06-05T08:02:41;102148.72;;;24.55;100.00
44140;BME280;29803;51.048;4.686;2023-06-05T08:05:15;102141.47;;;24.61;100.00
44140;BME280;29803;51.048;4.686;2023-06-05T08:07:47;102150.78;;;25.26;100.00
44140;BME280;29803;51.048;4.686;2023-06-05T08:10:17;102138.78;;;24.91;100.00
44140;BME280;29803;51.048;4.686;2023-06-05T08:12:48;102138.69;;;25.16;100.00
44140;BME280;29803;51.048;4.686;2023-06-05T08:15:18;102131.03;;;24.99;100.00
44140;BME280;29803;51.048;4.686;2023-06-05T08:17:49;102134.19;;;24.85;100.00
44140;BME280;29803;51.048;4.686;2023-06-05T08:20:19;102131.69;;;24.46;100.00
44140;BME280;29803;51.048;4.686;2023-06-05T08:22:50;102131.63;;;23.53;100.00
44140;BME280;29803;51.048;4.686;2023-06-05T08:25:21;102125.72;;;23.18;100.00
44140;BME280;29803;51.048;4.686;2023-06-05T08:27:51;102123.38;;;23.60;100.00
44140;BME280;29803;51.048;4.686;2023-06-05T08:30:22;102117.19;;;23.96;100.00
44140;BME280;29803;51.048;4.686;2023-06-05T08:32:52;102120.19;;;24.38;100.00
44140;BME280;29803;51.048;4.686;2023-06-05T08:35:22;102120.16;;;24.74;100.00
44140;BME280;29803;51.048;4.686;2023-06-05T08:37:53;102118.97;;;25.19;100.00
44140;BME280;29803;51.048;4.686;2023-06-05T08:40:27;102116.72;;;25.69;100.00
44140;BME280;29803;51.048;4.686;2023-06-05T08:43:00;102112.91;;;25.58;100.00
44140;BME280;29803;51.048;4.686;2023-06-05T08:45:31;102106.97;;;25.85;100.00
44140;BME280;29803;51.048;4.686;2023-06-05T08:48:02;102108.69;;;25.86;91.55
44140;BME280;29803;51.048;4.686;2023-06-05T08:50:33;102117.47;;;25.04;100.00
44140;BME280;29803;51.048;4.686;2023-06-05T08:53:05;102102.97;;;24.49;100.00
44140;BME280;29803;51.048;4.686;2023-06-05T08:55:36;102099.38;;;24.30;100.00
44140;BME280;29803;51.048;4.686;2023-06-05T08:58:06;102102.06;;;24.55;100.00
44140;BME280;29803;51.048;4.686;2023-06-05T09:00:37;102115.41;;;25.00;100.00
44140;BME280;29803;51.048;4.686;2023-06-05T09:03:10;102108.53;;;25.39;100.00
44140;BME280;29803;51.048;4.686;2023-06-05T09:05:43;102103.97;;;25.75;100.00
44140;BME280;29803;51.048;4.686;2023-06-05T09:08:29;102107.09;;;26.25;94.02
44140;BME280;29803;51.048;4.686;2023-06-05T09:13:54;102115.78;;;26.69;92.53
44140;BME280;29803;51.048;4.686;2023-06-05T09:16:38;102104.47;;;26.54;97.33
44140;BME280;29803;51.048;4.686;2023-06-05T09:19:10;102110.69;;;26.38;94.12
44140;BME280;29803;51.048;4.686;2023-06-05T09:21:51;102103.16;;;26.45;94.98
44140;BME280;29803;51.048;4.686;2023-06-05T09:24:23;102101.59;;;26.49;96.87
44140;BME280;29803;51.048;4.686;2023-06-05T09:29:29;102102.22;;;26.91;90.39
44140;BME280;29803;51.048;4.686;2023-06-05T09:32:02;102104.88;;;27.15;81.45
44140;BME280;29803;51.048;4.686;2023-06-05T09:34:35;102097.88;;;26.95;89.34
44140;BME280;29803;51.048;4.686;2023-06-05T09:37:10;102098.66;;;26.79;93.15
44140;BME280;29803;51.048;4.686;2023-06-05T09:39:42;102097.50;;;26.63;98.64
44140;BME280;29803;51.048;4.686;2023-06-05T09:42:14;102094.59;;;26.81;86.52
44140;BME280;29803;51.048;4.686;2023-06-05T09:44:58;102094.69;;;26.87;87.04
44140;BME280;29803;51.048;4.686;2023-06-05T09:47:29;102096.56;;;26.57;82.00
44140;BME280;29803;51.048;4.686;2023-06-05T09:49:59;102086.31;;;26.18;95.90
44140;BME280;29803;51.048;4.686;2023-06-05T09:52:30;102090.50;;;26.08;99.99
44140;BME280;29803;51.048;4.686;2023-06-05T09:55:05;102090.38;;;26.27;94.45
44140;BME280;29803;51.048;4.686;2023-06-05T09:57:37;102084.16;;;26.31;86.20
44140;BME280;29803;51.048;4.686;2023-06-05T10:00:09;102088.94;;;26.88;80.54
44140;BME280;29803;51.048;4.686;2023-06-05T10:02:44;102088.72;;;26.78;92.04
44140;BME280;29803;51.048;4.686;2023-06-05T10:05:15;102088.28;;;26.98;93.51
44140;BME280;29803;51.048;4.686;2023-06-05T10:07:45;102079.13;;;26.80;80.82
44140;BME280;29803;51.048;4.686;2023-06-05T10:10:18;102077.66;;;26.90;84.44
44140;BME280;29803;51.048;4.686;2023-06-05T10:12:48;102077.28;;;26.98;83.84
44140;BME280;29803;51.048;4.686;2023-06-05T10:15:19;102080.28;;;26.96;83.26
44140;BME280;29803;51.048;4.686;2023-06-05T10:17:50;102073.63;;;26.80;88.38
44140;BME280;29803;51.048;4.686;2023-06-05T10:20:21;102072.06;;;26.84;89.17
44140;BME280;29803;51.048;4.686;2023-06-05T10:22:52;102079.09;;;26.92;85.35
44140;BME280;29803;51.048;4.686;2023-06-05T10:25:23;102078.56;;;26.78;92.28
44140;BME280;29803;51.048;4.686;2023-06-05T10:28:19;102075.75;;;26.90;90.27
44140;BME280;29803;51.048;4.686;2023-06-05T10:31:16;102082.19;;;26.96;83.11
44140;BME280;29803;51.048;4.686;2023-06-05T10:37:08;102080.09;;;27.15;75.03
44140;BME280;29803;51.048;4.686;2023-06-05T10:39:53;102080.13;;;27.03;79.76
44140;BME280;29803;51.048;4.686;2023-06-05T10:42:26;102075.94;;;27.00;87.06
44140;BME280;29803;51.048;4.686;2023-06-05T10:44:57;102070.06;;;27.08;80.40
44140;BME280;29803;51.048;4.686;2023-06-05T10:52:49;102068.53;;;26.72;75.69
44140;BME280;29803;51.048;4.686;2023-06-05T10:55:22;102048.22;;;26.90;90.80
44140;BME280;29803;51.048;4.686;2023-06-05T10:58:04;102066.06;;;26.88;79.21
44140;BME280;29803;51.048;4.686;2023-06-05T11:00:37;102060.72;;;26.81;79.43
44140;BME280;29803;51.048;4.686;2023-06-05T11:03:08;102053.47;;;26.63;74.33
44140;BME280;29803;51.048;4.686;2023-06-05T11:12:02;102031.31;;;26.70;84.66
44140;BME280;29803;51.048;4.686;2023-06-05T11:14:46;102042.88;;;26.83;91.46
44140;BME280;29803;51.048;4.686;2023-06-05T11:17:27;102041.22;;;26.99;83.53
44140;BME280;29803;51.048;4.686;2023-06-05T11:19:59;102042.69;;;26.90;79.48
44140;BME280;29803;51.048;4.686;2023-06-05T11:22:30;102031.50;;;26.80;89.57
44140;BME280;29803;51.048;4.686;2023-06-05T11:27:45;102028.63;;;27.03;85.02
44140;BME280;29803;51.048;4.686;2023-06-05T11:30:18;102035.53;;;26.89;82.63
44140;BME280;29803;51.048;4.686;2023-06-05T11:32:49;102019.47;;;26.98;82.86
44140;BME280;29803;51.048;4.686;2023-06-05T11:35:25;102033.69;;;26.78;89.25
44140;BME280;29803;51.048;4.686;2023-06-05T11:40:40;102020.34;;;26.87;85.88
44140;BME280;29803;51.048;4.686;2023-06-05T11:43:12;102013.44;;;27.01;78.66
44140;BME280;29803;51.048;4.686;2023-06-05T11:46:00;102015.34;;;27.00;84.74
44140;BME280;29803;51.048;4.686;2023-06-05T11:48:30;102010.19;;;27.04;80.71
44140;BME280;29803;51.048;4.686;2023-06-05T11:51:03;102011.50;;;27.30;82.80
44140;BME280;29803;51.048;4.686;2023-06-05T11:53:34;102012.25;;;27.25;82.43
44140;BME280;29803;51.048;4.686;2023-06-05T11:56:26;102013.75;;;27.16;67.18
44140;BME280;29803;51.048;4.686;2023-06-05T11:58:57;102004.63;;;27.16;76.92
44140;BME280;29803;51.048;4.686;2023-06-05T12:01:28;102003.56;;;27.33;83.25
44140;BME280;29803;51.048;4.686;2023-06-05T12:04:03;101998.38;;;27.54;76.89
44140;BME280;29803;51.048;4.686;2023-06-05T12:06:51;101998.97;;;27.39;68.41
44140;BME280;29803;51.048;4.686;2023-06-05T12:09:23;101991.97;;;27.15;74.96
44140;BME280;29803;51.048;4.686;2023-06-05T12:12:04;101990.13;;;27.20;71.72
44140;BME280;29803;51.048;4.686;2023-06-05T12:14:36;102004.63;;;27.16;65.93
44140;BME280;29803;51.048;4.686;2023-06-05T12:17:09;102001.50;;;26.95;64.46
44140;BME280;29803;51.048;4.686;2023-06-05T12:19:40;102005.06;;;26.79;66.09
44140;BME280;29803;51.048;4.686;2023-06-05T12:22:11;101999.56;;;26.79;70.34
44140;BME280;29803;51.048;4.686;2023-06-05T12:24:41;101994.66;;;26.98;79.43
44140;BME280;29803;51.048;4.686;2023-06-05T12:27:12;101987.22;;;27.27;72.14
44140;BME280;29803;51.048;4.686;2023-06-05T12:29:52;101984.72;;;27.42;73.88
44140;BME280;29803;51.048;4.686;2023-06-05T12:32:25;101979.31;;;27.69;68.87
44140;BME280;29803;51.048;4.686;2023-06-05T12:34:56;101978.75;;;27.67;70.03
44140;BME280;29803;51.048;4.686;2023-06-05T12:37:28;101979.00;;;27.49;66.13
44140;BME280;29803;51.048;4.686;2023-06-05T12:40:00;101971.84;;;27.48;72.27
44140;BME280;29803;51.048;4.686;2023-06-05T12:42:34;101974.75;;;27.58;65.25
44140;BME280;29803;51.048;4.686;2023-06-05T12:45:06;101973.31;;;27.55;63.34
44140;BME280;29803;51.048;4.686;2023-06-05T12:47:37;101974.81;;;27.63;60.02
44140;BME280;29803;51.048;4.686;2023-06-05T12:50:09;101965.13;;;27.60;63.47
44140;BME280;29803;51.048;4.686;2023-06-05T12:52:42;101963.03;;;27.68;72.55
44140;BME280;29803;51.048;4.686;2023-06-05T12:55:13;101972.31;;;27.78;69.78
44140;BME280;29803;51.048;4.686;2023-06-05T12:57:43;101971.81;;;27.65;62.26
44140;BME280;29803;51.048;4.686;2023-06-05T13:00:15;101960.06;;;27.52;66.88
44140;BME280;29803;51.048;4.686;2023-06-05T13:02:48;101964.00;;;27.40;60.05
44140;BME280;29803;51.048;4.686;2023-06-05T13:05:19;101966.75;;;27.23;58.71
44140;BME280;29803;51.048;4.686;2023-06-05T13:07:49;101960.28;;;27.00;57.66
44140;BME280;29803;51.048;4.686;2023-06-05T13:10:24;101965.63;;;26.90;57.01
44140;BME280;29803;51.048;4.686;2023-06-05T13:12:56;101965.13;;;26.93;68.28
44140;BME280;29803;51.048;4.686;2023-06-05T13:15:26;101956.06;;;27.09;61.10
44140;BME280;29803;51.048;4.686;2023-06-05T13:17:57;101954.31;;;27.37;67.22
44140;BME280;29803;51.048;4.686;2023-06-05T13:20:27;101950.41;;;27.33;61.93
44140;BME280;29803;51.048;4.686;2023-06-05T13:22:58;101947.69;;;27.04;57.22
44140;BME280;29803;51.048;4.686;2023-06-05T13:25:28;101948.28;;;27.06;57.87
44140;BME280;29803;51.048;4.686;2023-06-05T13:27:59;101938.38;;;27.22;66.16
44140;BME280;29803;51.048;4.686;2023-06-05T13:30:29;101934.19;;;27.36;63.81
44140;BME280;29803;51.048;4.686;2023-06-05T13:33:00;101938.44;;;27.44;56.97
44140;BME280;29803;51.048;4.686;2023-06-05T13:35:31;101929.44;;;27.15;64.43
44140;BME280;29803;51.048;4.686;2023-06-05T13:38:01;101930.19;;;27.10;65.60